sensor_id;sensor_type;location;lat;lon;timestamp;pressure;altitude;pressure_sealevel;temperature;humidity
25526;BME280;13424;48.424;11.258;2022-10-16T00:01:27;95621.38;;;17.05;80.53
25526;BME280;13424;48.424;11.258;2022-10-16T00:03:53;95619.94;;;17.17;80.24
25526;BME280;13424;48.424;11.258;2022-10-16T00:06:21;95612.19;;;17.06;80.81
25526;BME280;13424;48.424;11.258;2022-10-16T00:08:48;95608.38;;;17.17;80.88
25526;BME280;13424;48.424;11.258;2022-10-16T00:11:19;95613.44;;;17.23;80.50
25526;BME280;13424;48.424;11.258;2022-10-16T00:13:48;95618.19;;;17.37;79.97
25526;BME280;13424;48.424;11.258;2022-10-16T00:16:15;95635.69;;;17.39;80.01
25526;BME280;13424;48.424;11.258;2022-10-16T00:18:42;95643.31;;;17.27;80.62
25526;BME280;13424;48.424;11.258;2022-10-16T00:21:15;95635.03;;;17.18;81.40
25526;BME280;13424;48.424;11.258;2022-10-16T00:23:41;95645.25;;;17.21;81.06
25526;BME280;13424;48.424;11.258;2022-10-16T00:26:17;95655.91;;;17.37;79.89
25526;BME280;13424;48.424;11.258;2022-10-16T00:28:47;95656.88;;;17.17;80.79
25526;BME280;13424;48.424;11.258;2022-10-16T00:31:13;95654.56;;;17.39;79.89
25526;BME280;13424;48.424;11.258;2022-10-16T00:33:40;95649.22;;;17.29;79.98
25526;BME280;13424;48.424;11.258;2022-10-16T00:36:08;95647.09;;;17.31;80.24
25526;BME280;13424;48.424;11.258;2022-10-16T00:38:35;95646.44;;;17.44;79.71
25526;BME280;13424;48.424;11.258;2022-10-16T00:41:01;95650.50;;;17.42;79.97
25526;BME280;13424;48.424;11.258;2022-10-16T00:43:40;95641.56;;;17.46;80.02
25526;BME280;13424;48.424;11.258;2022-10-16T00:46:22;95650.69;;;17.50;80.26
25526;BME280;13424;48.424;11.258;2022-10-16T00:49:29;95653.91;;;17.52;80.28
25526;BME280;13424;48.424;11.258;2022-10-16T00:51:50;95651.19;;;17.57;79.73
25526;BME280;13424;48.424;11.258;2022-10-16T00:54:30;95653.88;;;17.57;80.05
25526;BME280;13424;48.424;11.258;2022-10-16T00:57:40;95650.56;;;17.71;79.44
25526;BME280;13424;48.424;11.258;2022-10-16T01:00:10;95647.88;;;17.66;79.77
25526;BME280;13424;48.424;11.258;2022-10-16T01:02:37;95652.19;;;17.72;79.35
25526;BME280;13424;48.424;11.258;2022-10-16T01:05:03;95654.50;;;17.44;80.05
25526;BME280;13424;48.424;11.258;2022-10-16T01:07:58;95656.00;;;17.61;79.67
25526;BME280;13424;48.424;11.258;2022-10-16T01:10:35;95662.50;;;17.59;79.83
25526;BME280;13424;48.424;11.258;2022-10-16T01:13:12;95658.66;;;17.66;79.45
25526;BME280;13424;48.424;11.258;2022-10-16T01:15:58;95658.69;;;17.61;79.67
25526;BME280;13424;48.424;11.258;2022-10-16T01:18:37;95664.19;;;17.50;80.28
25526;BME280;13424;48.424;11.258;2022-10-16T01:27:30;95651.00;;;17.49;80.76
25526;BME280;13424;48.424;11.258;2022-10-16T01:30:12;95641.56;;;17.46;81.06
25526;BME280;13424;48.424;11.258;2022-10-16T01:32:55;95642.63;;;17.45;81.29
25526;BME280;13424;48.424;11.258;2022-10-16T01:35:27;95655.06;;;17.46;81.65
25526;BME280;13424;48.424;11.258;2022-10-16T01:38:25;95645.19;;;17.71;80.48
25526;BME280;13424;48.424;11.258;2022-10-16T01:41:01;95646.72;;;17.77;80.53
25526;BME280;13424;48.424;11.258;2022-10-16T01:43:35;95646.22;;;17.75;80.68
25526;BME280;13424;48.424;11.258;2022-10-16T01:46:03;95638.78;;;17.56;81.33
25526;BME280;13424;48.424;11.258;2022-10-16T01:48:29;95632.25;;;17.28;82.61
25526;BME280;13424;48.424;11.258;2022-10-16T01:51:13;95628.44;;;16.95;83.72
25526;BME280;13424;48.424;11.258;2022-10-16T01:53:40;95643.50;;;17.01;83.49
25526;BME280;13424;48.424;11.258;2022-10-16T01:56:09;95661.47;;;17.11;83.38
25526;BME280;13424;48.424;11.258;2022-10-16T01:58:42;95646.28;;;16.86;84.36
25526;BME280;13424;48.424;11.258;2022-10-16T02:01:10;95657.41;;;17.19;82.56
25526;BME280;13424;48.424;11.258;2022-10-16T02:03:37;95667.22;;;16.99;82.97
25526;BME280;13424;48.424;11.258;2022-10-16T02:06:06;95668.25;;;17.03;82.50
25526;BME280;13424;48.424;11.258;2022-10-16T02:08:32;95657.50;;;17.03;82.54
25526;BME280;13424;48.424;11.258;2022-10-16T02:10:59;95646.91;;;16.63;84.06
25526;BME280;13424;48.424;11.258;2022-10-16T02:13:46;95643.06;;;16.84;83.68
25526;BME280;13424;48.424;11.258;2022-10-16T02:16:14;95647.00;;;17.02;82.87
25526;BME280;13424;48.424;11.258;2022-10-16T02:18:41;95649.38;;;17.09;82.58
25526;BME280;13424;48.424;11.258;2022-10-16T02:21:25;95657.63;;;16.83;83.40
25526;BME280;13424;48.424;11.258;2022-10-16T02:26:38;95658.44;;;16.79;84.41
25526;BME280;13424;48.424;11.258;2022-10-16T02:29:09;95652.25;;;16.78;83.95
25526;BME280;13424;48.424;11.258;2022-10-16T02:31:38;95644.44;;;16.77;83.87
25526;BME280;13424;48.424;11.258;2022-10-16T02:34:07;95637.50;;;16.55;85.19
25526;BME280;13424;48.424;11.258;2022-10-16T02:36:34;95638.28;;;16.71;84.57
25526;BME280;13424;48.424;11.258;2022-10-16T02:39:01;95628.06;;;16.58;85.26
25526;BME280;13424;48.424;11.258;2022-10-16T02:41:30;95635.84;;;16.64;85.32
25526;BME280;13424;48.424;11.258;2022-10-16T02:43:56;95651.06;;;16.94;84.06
25526;BME280;13424;48.424;11.258;2022-10-16T02:46:21;95643.06;;;16.79;84.28
25526;BME280;13424;48.424;11.258;2022-10-16T02:48:47;95647.97;;;16.72;84.69
25526;BME280;13424;48.424;11.258;2022-10-16T02:51:13;95648.75;;;16.78;84.42
25526;BME280;13424;48.424;11.258;2022-10-16T02:53:39;95643.69;;;16.56;85.03
25526;BME280;13424;48.424;11.258;2022-10-16T02:56:05;95645.28;;;16.62;84.74
25526;BME280;13424;48.424;11.258;2022-10-16T02:58:31;95659.53;;;16.67;84.55
25526;BME280;13424;48.424;11.258;2022-10-16T03:01:06;95667.06;;;16.76;84.17
25526;BME280;13424;48.424;11.258;2022-10-16T03:03:31;95666.84;;;16.62;85.33
25526;BME280;13424;48.424;11.258;2022-10-16T03:05:57;95670.81;;;16.74;84.46
25526;BME280;13424;48.424;11.258;2022-10-16T03:12:29;95671.94;;;16.58;84.76
25526;BME280;13424;48.424;11.258;2022-10-16T03:14:57;95658.28;;;16.39;86.47
25526;BME280;13424;48.424;11.258;2022-10-16T03:17:24;95658.75;;;16.57;86.20
25526;BME280;13424;48.424;11.258;2022-10-16T03:19:50;95666.69;;;16.28;86.85
25526;BME280;13424;48.424;11.258;2022-10-16T03:22:15;95667.94;;;16.56;85.77
25526;BME280;13424;48.424;11.258;2022-10-16T03:24:41;95674.44;;;16.39;86.43
25526;BME280;13424;48.424;11.258;2022-10-16T03:27:08;95675.47;;;16.48;85.97
25526;BME280;13424;48.424;11.258;2022-10-16T03:29:40;95677.13;;;16.39;86.51
25526;BME280;13424;48.424;11.258;2022-10-16T03:32:06;95673.94;;;16.32;86.58
25526;BME280;13424;48.424;11.258;2022-10-16T03:34:32;95672.31;;;16.31;86.60
25526;BME280;13424;48.424;11.258;2022-10-16T03:36:58;95676.06;;;16.40;86.11
25526;BME280;13424;48.424;11.258;2022-10-16T03:39:24;95677.38;;;16.48;85.83
25526;BME280;13424;48.424;11.258;2022-10-16T03:41:49;95682.28;;;16.31;86.70
25526;BME280;13424;48.424;11.258;2022-10-16T03:48:21;95687.63;;;16.51;85.60
25526;BME280;13424;48.424;11.258;2022-10-16T03:50:47;95683.09;;;16.26;86.60
25526;BME280;13424;48.424;11.258;2022-10-16T03:53:14;95683.63;;;16.18;87.12
25526;BME280;13424;48.424;11.258;2022-10-16T03:55:44;95680.94;;;16.18;87.20
25526;BME280;13424;48.424;11.258;2022-10-16T03:58:10;95683.09;;;16.31;86.62
25526;BME280;13424;48.424;11.258;2022-10-16T04:00:40;95687.94;;;16.24;86.70
25526;BME280;13424;48.424;11.258;2022-10-16T04:03:06;95685.81;;;16.16;87.00
25526;BME280;13424;48.424;11.258;2022-10-16T04:05:34;95684.19;;;16.15;87.60
25526;BME280;13424;48.424;11.258;2022-10-16T04:08:00;95675.53;;;16.33;86.24
25526;BME280;13424;48.424;11.258;2022-10-16T04:10:26;95670.38;;;16.47;85.65
25526;BME280;13424;48.424;11.258;2022-10-16T04:12:52;95666.88;;;16.46;85.88
25526;BME280;13424;48.424;11.258;2022-10-16T04:15:20;95682.56;;;16.29;85.75
25526;BME280;13424;48.424;11.258;2022-10-16T04:17:46;95688.13;;;16.53;84.55
25526;BME280;13424;48.424;11.258;2022-10-16T04:20:12;95678.16;;;16.54;84.71
25526;BME280;13424;48.424;11.258;2022-10-16T04:22:38;95679.69;;;16.80;83.74
25526;BME280;13424;48.424;11.258;2022-10-16T04:25:05;95678.66;;;16.66;84.36
25526;BME280;13424;48.424;11.258;2022-10-16T04:27:30;95676.50;;;16.68;84.55
25526;BME280;13424;48.424;11.258;2022-10-16T04:29:58;95684.38;;;16.49;84.61
25526;BME280;13424;48.424;11.258;2022-10-16T04:32:24;95687.81;;;16.65;84.07
25526;BME280;13424;48.424;11.258;2022-10-16T04:34:50;95687.28;;;16.73;83.73
25526;BME280;13424;48.424;11.258;2022-10-16T04:37:16;95687.25;;;16.78;83.35
25526;BME280;13424;48.424;11.258;2022-10-16T04:39:42;95684.59;;;16.58;84.52
25526;BME280;13424;48.424;11.258;2022-10-16T04:42:20;95684.69;;;16.32;85.39
25526;BME280;13424;48.424;11.258;2022-10-16T04:44:46;95687.44;;;16.12;85.98
25526;BME280;13424;48.424;11.258;2022-10-16T04:47:13;95688.91;;;16.59;84.52
25526;BME280;13424;48.424;11.258;2022-10-16T04:49:38;95689.06;;;15.98;87.37
25526;BME280;13424;48.424;11.258;2022-10-16T04:52:05;95687.38;;;16.32;85.52
25526;BME280;13424;48.424;11.258;2022-10-16T04:54:31;95676.50;;;16.68;83.75
25526;BME280;13424;48.424;11.258;2022-10-16T04:56:57;95676.63;;;16.27;85.53
25526;BME280;13424;48.424;11.258;2022-10-16T04:59:23;95680.91;;;16.43;85.02
25526;BME280;13424;48.424;11.258;2022-10-16T05:01:49;95674.53;;;16.09;86.11
25526;BME280;13424;48.424;11.258;2022-10-16T05:04:15;95675.53;;;16.38;84.91
25526;BME280;13424;48.424;11.258;2022-10-16T05:06:41;95672.34;;;16.11;86.00
25526;BME280;13424;48.424;11.258;2022-10-16T05:09:08;95670.72;;;16.35;84.50
25526;BME280;13424;48.424;11.258;2022-10-16T05:11:34;95677.66;;;16.41;84.42
25526;BME280;13424;48.424;11.258;2022-10-16T05:14:00;95680.91;;;16.38;83.89
25526;BME280;13424;48.424;11.258;2022-10-16T05:20:32;95697.13;;;16.13;84.69
25526;BME280;13424;48.424;11.258;2022-10-16T05:22:58;95694.16;;;16.14;84.88
25526;BME280;13424;48.424;11.258;2022-10-16T05:25:24;95699.28;;;16.06;85.00
25526;BME280;13424;48.424;11.258;2022-10-16T05:27:50;95694.44;;;16.08;84.72
25526;BME280;13424;48.424;11.258;2022-10-16T05:30:17;95673.75;;;15.88;85.73
25526;BME280;13424;48.424;11.258;2022-10-16T05:32:50;95673.75;;;15.83;85.78
25526;BME280;13424;48.424;11.258;2022-10-16T05:35:17;95687.47;;;15.81;85.95
25526;BME280;13424;48.424;11.258;2022-10-16T05:37:53;95690.13;;;16.12;84.72
25526;BME280;13424;48.424;11.258;2022-10-16T05:40:18;95692.31;;;15.89;85.63
25526;BME280;13424;48.424;11.258;2022-10-16T05:42:44;95685.81;;;15.34;88.44
25526;BME280;13424;48.424;11.258;2022-10-16T05:45:11;95691.75;;;15.42;88.28
25526;BME280;13424;48.424;11.258;2022-10-16T05:47:37;95690.16;;;15.61;87.58
25526;BME280;13424;48.424;11.258;2022-10-16T05:50:04;95704.41;;;15.87;85.41
25526;BME280;13424;48.424;11.258;2022-10-16T05:52:30;95707.09;;;15.61;86.10
25526;BME280;13424;48.424;11.258;2022-10-16T05:54:56;95714.03;;;15.47;87.27
25526;BME280;13424;48.424;11.258;2022-10-16T05:58:08;95712.72;;;15.96;84.61
25526;BME280;13424;48.424;11.258;2022-10-16T06:00:34;95719.19;;;16.20;83.67
25526;BME280;13424;48.424;11.258;2022-10-16T06:03:00;95714.63;;;16.00;84.37
25526;BME280;13424;48.424;11.258;2022-10-16T06:05:26;95732.66;;;15.64;86.28
25526;BME280;13424;48.424;11.258;2022-10-16T06:07:52;95735.34;;;15.89;85.21
25526;BME280;13424;48.424;11.258;2022-10-16T06:10:17;95739.06;;;16.19;83.98
25526;BME280;13424;48.424;11.258;2022-10-16T06:12:43;95737.47;;;16.13;83.58
25526;BME280;13424;48.424;11.258;2022-10-16T06:15:09;95733.44;;;16.10;83.98
25526;BME280;13424;48.424;11.258;2022-10-16T06:17:35;95740.69;;;16.10;84.60
25526;BME280;13424;48.424;11.258;2022-10-16T06:20:01;95742.00;;;16.33;83.52
25526;BME280;13424;48.424;11.258;2022-10-16T06:22:26;95744.91;;;16.67;82.38
25526;BME280;13424;48.424;11.258;2022-10-16T06:24:52;95747.94;;;16.45;82.83
25526;BME280;13424;48.424;11.258;2022-10-16T06:27:18;95748.22;;;16.18;83.66
25526;BME280;13424;48.424;11.258;2022-10-16T06:29:44;95752.53;;;16.14;85.13
25526;BME280;13424;48.424;11.258;2022-10-16T06:32:10;95755.16;;;16.50;83.18
25526;BME280;13424;48.424;11.258;2022-10-16T06:34:36;95753.53;;;16.59;82.92
25526;BME280;13424;48.424;11.258;2022-10-16T06:37:02;95762.91;;;16.92;81.58
25526;BME280;13424;48.424;11.258;2022-10-16T06:39:28;95771.03;;;17.36;80.09
25526;BME280;13424;48.424;11.258;2022-10-16T06:41:53;95771.06;;;17.31;79.86
25526;BME280;13424;48.424;11.258;2022-10-16T06:44:57;95768.44;;;17.16;80.67
25526;BME280;13424;48.424;11.258;2022-10-16T06:47:22;95775.16;;;17.23;80.79
25526;BME280;13424;48.424;11.258;2022-10-16T06:49:48;95770.59;;;17.19;80.81
25526;BME280;13424;48.424;11.258;2022-10-16T06:52:14;95765.25;;;17.09;81.38
25526;BME280;13424;48.424;11.258;2022-10-16T06:54:40;95777.81;;;17.28;81.33
25526;BME280;13424;48.424;11.258;2022-10-16T06:57:06;95784.84;;;17.69;80.00
25526;BME280;13424;48.424;11.258;2022-10-16T06:59:31;95795.56;;;17.84;78.78
25526;BME280;13424;48.424;11.258;2022-10-16T07:01:57;95782.84;;;18.24;77.45
25526;BME280;13424;48.424;11.258;2022-10-16T07:04:23;95799.63;;;18.21;77.88
25526;BME280;13424;48.424;11.258;2022-10-16T07:06:49;95804.09;;;18.64;76.46
25526;BME280;13424;48.424;11.258;2022-10-16T07:09:17;95797.28;;;18.43;77.09
25526;BME280;13424;48.424;11.258;2022-10-16T07:11:42;95806.91;;;18.83;76.01
25526;BME280;13424;48.424;11.258;2022-10-16T07:14:18;95811.25;;;18.79;75.87
25526;BME280;13424;48.424;11.258;2022-10-16T07:16:47;95806.13;;;19.25;74.61
25526;BME280;13424;48.424;11.258;2022-10-16T07:19:14;95807.84;;;19.21;75.42
25526;BME280;13424;48.424;11.258;2022-10-16T07:21:41;95816.16;;;19.01;76.03
25526;BME280;13424;48.424;11.258;2022-10-16T07:24:13;95812.78;;;19.14;75.24
25526;BME280;13424;48.424;11.258;2022-10-16T07:26:39;95819.13;;;19.05;75.72
25526;BME280;13424;48.424;11.258;2022-10-16T07:29:17;95822.13;;;19.46;74.27
25526;BME280;13424;48.424;11.258;2022-10-16T07:31:44;95825.41;;;19.43;73.92
25526;BME280;13424;48.424;11.258;2022-10-16T07:34:11;95814.84;;;19.65;73.42
25526;BME280;13424;48.424;11.258;2022-10-16T07:36:38;95819.56;;;19.60;72.93
25526;BME280;13424;48.424;11.258;2022-10-16T07:39:03;95823.00;;;19.84;71.71
25526;BME280;13424;48.424;11.258;2022-10-16T07:41:30;95830.75;;;19.91;71.89
25526;BME280;13424;48.424;11.258;2022-10-16T07:43:58;95824.72;;;20.31;71.01
25526;BME280;13424;48.424;11.258;2022-10-16T07:46:26;95831.50;;;20.48;70.13
25526;BME280;13424;48.424;11.258;2022-10-16T07:48:52;95834.75;;;20.31;70.20
25526;BME280;13424;48.424;11.258;2022-10-16T07:51:23;95836.09;;;20.15;70.10
25526;BME280;13424;48.424;11.258;2022-10-16T07:53:50;95833.53;;;19.86;71.46
25526;BME280;13424;48.424;11.258;2022-10-16T07:56:17;95849.91;;;20.32;70.26
25526;BME280;13424;48.424;11.258;2022-10-16T07:58:44;95842.88;;;21.10;68.56
25526;BME280;13424;48.424;11.258;2022-10-16T08:01:13;95852.00;;;21.14;68.31
25526;BME280;13424;48.424;11.258;2022-10-16T08:03:45;95845.69;;;21.05;68.13
25526;BME280;13424;48.424;11.258;2022-10-16T08:06:11;95850.69;;;20.98;68.47
25526;BME280;13424;48.424;11.258;2022-10-16T08:08:37;95843.25;;;20.89;68.25
25526;BME280;13424;48.424;11.258;2022-10-16T08:11:03;95858.63;;;21.08;68.48
25526;BME280;13424;48.424;11.258;2022-10-16T08:13:30;95860.44;;;20.99;68.39
25526;BME280;13424;48.424;11.258;2022-10-16T08:15:56;95866.41;;;21.69;67.29
25526;BME280;13424;48.424;11.258;2022-10-16T08:18:22;95867.91;;;21.76;67.00
25526;BME280;13424;48.424;11.258;2022-10-16T08:20:48;95875.13;;;21.80;66.05
25526;BME280;13424;48.424;11.258;2022-10-16T08:23:20;95872.94;;;21.68;66.93
25526;BME280;13424;48.424;11.258;2022-10-16T08:25:45;95876.25;;;22.29;65.44
25526;BME280;13424;48.424;11.258;2022-10-16T08:28:11;95877.56;;;21.40;66.73
25526;BME280;13424;48.424;11.258;2022-10-16T08:30:37;95876.75;;;22.53;64.74
25526;BME280;13424;48.424;11.258;2022-10-16T08:33:03;95882.66;;;22.33;65.05
25526;BME280;13424;48.424;11.258;2022-10-16T08:35:29;95879.34;;;21.86;66.30
25526;BME280;13424;48.424;11.258;2022-10-16T08:37:55;95886.38;;;21.87;66.09
25526;BME280;13424;48.424;11.258;2022-10-16T08:40:27;95878.84;;;22.34;65.90
25526;BME280;13424;48.424;11.258;2022-10-16T08:43:16;95879.94;;;22.92;65.55
25526;BME280;13424;48.424;11.258;2022-10-16T08:48:51;95884.25;;;23.24;64.32
25526;BME280;13424;48.424;11.258;2022-10-16T08:51:26;95885.06;;;22.93;63.93
25526;BME280;13424;48.424;11.258;2022-10-16T08:54:04;95881.69;;;22.74;64.45
25526;BME280;13424;48.424;11.258;2022-10-16T08:56:30;95883.19;;;23.02;65.10
25526;BME280;13424;48.424;11.258;2022-10-16T08:58:58;95887.66;;;23.78;64.82
25526;BME280;13424;48.424;11.258;2022-10-16T09:01:32;95881.63;;;23.98;62.36
25526;BME280;13424;48.424;11.258;2022-10-16T09:08:20;95889.06;;;24.58;61.44
25526;BME280;13424;48.424;11.258;2022-10-16T09:11:44;95899.19;;;24.58;61.10
25526;BME280;13424;48.424;11.258;2022-10-16T09:16:58;95904.09;;;24.12;61.26
25526;BME280;13424;48.424;11.258;2022-10-16T09:19:36;95899.34;;;24.44;61.31
25526;BME280;13424;48.424;11.258;2022-10-16T09:22:14;95904.13;;;24.64;62.24
25526;BME280;13424;48.424;11.258;2022-10-16T09:24:40;95913.88;;;25.17;60.15
25526;BME280;13424;48.424;11.258;2022-10-16T09:27:12;95915.00;;;25.16;60.67
25526;BME280;13424;48.424;11.258;2022-10-16T09:33:16;95926.06;;;25.20;60.17
25526;BME280;13424;48.424;11.258;2022-10-16T09:35:56;95918.88;;;25.15;61.55
25526;BME280;13424;48.424;11.258;2022-10-16T09:38:34;95918.16;;;25.36;61.05
25526;BME280;13424;48.424;11.258;2022-10-16T09:43:49;95919.78;;;25.75;57.98
25526;BME280;13424;48.424;11.258;2022-10-16T09:46:26;95911.41;;;25.33;57.21
25526;BME280;13424;48.424;11.258;2022-10-16T09:48:59;95921.69;;;25.27;58.73
25526;BME280;13424;48.424;11.258;2022-10-16T09:56:36;95925.16;;;25.54;58.58
25526;BME280;13424;48.424;11.258;2022-10-16T09:59:11;95934.09;;;25.25;57.91
25526;BME280;13424;48.424;11.258;2022-10-16T10:01:50;95929.72;;;25.32;57.15
25526;BME280;13424;48.424;11.258;2022-10-16T10:04:21;95936.00;;;25.33;57.42
25526;BME280;13424;48.424;11.258;2022-10-16T10:06:53;95930.66;;;25.45;58.21
25526;BME280;13424;48.424;11.258;2022-10-16T10:13:22;95938.59;;;25.76;57.18
25526;BME280;13424;48.424;11.258;2022-10-16T10:15:50;95937.78;;;25.67;57.57
25526;BME280;13424;48.424;11.258;2022-10-16T10:18:21;95942.19;;;25.51;57.20
25526;BME280;13424;48.424;11.258;2022-10-16T10:21:02;95939.19;;;25.35;60.75
25526;BME280;13424;48.424;11.258;2022-10-16T10:23:29;95932.50;;;24.98;61.49
25526;BME280;13424;48.424;11.258;2022-10-16T10:26:19;95934.41;;;25.23;59.40
25526;BME280;13424;48.424;11.258;2022-10-16T10:29:12;95933.00;;;25.09;57.83
25526;BME280;13424;48.424;11.258;2022-10-16T10:32:15;95938.63;;;25.12;59.42
25526;BME280;13424;48.424;11.258;2022-10-16T10:48:05;95933.69;;;25.91;59.14
25526;BME280;13424;48.424;11.258;2022-10-16T10:50:45;95934.22;;;25.37;56.34
25526;BME280;13424;48.424;11.258;2022-10-16T10:53:57;95940.25;;;25.60;58.89
25526;BME280;13424;48.424;11.258;2022-10-16T10:57:00;95938.44;;;25.64;58.82
25526;BME280;13424;48.424;11.258;2022-10-16T11:00:03;95943.41;;;25.79;56.66
25526;BME280;13424;48.424;11.258;2022-10-16T11:02:45;95953.47;;;25.41;58.76
25526;BME280;13424;48.424;11.258;2022-10-16T11:08:13;95954.66;;;25.69;56.50
25526;BME280;13424;48.424;11.258;2022-10-16T11:10:58;95952.06;;;25.81;58.18
25526;BME280;13424;48.424;11.258;2022-10-16T11:13:55;95944.56;;;25.14;56.06
25526;BME280;13424;48.424;11.258;2022-10-16T11:16:39;95950.47;;;25.16;55.15
25526;BME280;13424;48.424;11.258;2022-10-16T11:22:13;95945.25;;;26.26;56.92
25526;BME280;13424;48.424;11.258;2022-10-16T11:27:44;95931.25;;;26.69;51.89
25526;BME280;13424;48.424;11.258;2022-10-16T11:30:30;95922.78;;;27.04;53.35
25526;BME280;13424;48.424;11.258;2022-10-16T11:36:12;95931.59;;;26.88;51.65
25526;BME280;13424;48.424;11.258;2022-10-16T11:41:49;95934.97;;;27.27;51.51
25526;BME280;13424;48.424;11.258;2022-10-16T11:48:41;95932.50;;;27.13;52.17
25526;BME280;13424;48.424;11.258;2022-10-16T11:54:35;95934.19;;;27.06;52.73
25526;BME280;13424;48.424;11.258;2022-10-16T11:57:21;95939.47;;;26.69;51.98
25526;BME280;13424;48.424;11.258;2022-10-16T12:04:39;95945.53;;;26.54;53.61
25526;BME280;13424;48.424;11.258;2022-10-16T12:07:36;95930.03;;;25.86;54.91
25526;BME280;13424;48.424;11.258;2022-10-16T12:13:37;95926.81;;;26.64;53.34
25526;BME280;13424;48.424;11.258;2022-10-16T12:18:37;95926.22;;;26.59;52.33
25526;BME280;13424;48.424;11.258;2022-10-16T12:21:03;95920.44;;;26.93;52.77
25526;BME280;13424;48.424;11.258;2022-10-16T12:23:54;95920.44;;;26.93;51.63
25526;BME280;13424;48.424;11.258;2022-10-16T12:26:30;95922.88;;;26.74;51.80
25526;BME280;13424;48.424;11.258;2022-10-16T12:29:32;95926.25;;;27.25;51.94
25526;BME280;13424;48.424;11.258;2022-10-16T12:31:58;95916.25;;;27.29;50.11
25526;BME280;13424;48.424;11.258;2022-10-16T12:34:42;95918.13;;;27.62;50.96
25526;BME280;13424;48.424;11.258;2022-10-16T12:37:33;95917.91;;;28.03;49.78
25526;BME280;13424;48.424;11.258;2022-10-16T12:40:32;95919.06;;;27.66;49.24
25526;BME280;13424;48.424;11.258;2022-10-16T12:42:57;95920.16;;;27.52;50.92
25526;BME280;13424;48.424;11.258;2022-10-16T12:45:36;95914.84;;;27.23;49.20
25526;BME280;13424;48.424;11.258;2022-10-16T12:48:04;95923.56;;;27.37;48.85
25526;BME280;13424;48.424;11.258;2022-10-16T12:50:43;95918.91;;;26.84;51.84
25526;BME280;13424;48.424;11.258;2022-10-16T12:53:23;95918.16;;;26.62;49.79
25526;BME280;13424;48.424;11.258;2022-10-16T12:59:26;95915.09;;;26.97;52.65
25526;BME280;13424;48.424;11.258;2022-10-16T13:07:41;95921.53;;;26.59;50.01
25526;BME280;13424;48.424;11.258;2022-10-16T13:25:21;95940.03;;;26.62;52.77
25526;BME280;13424;48.424;11.258;2022-10-16T13:27:56;95939.16;;;26.50;53.27
25526;BME280;13424;48.424;11.258;2022-10-16T13:30:25;95939.84;;;26.47;50.84
25526;BME280;13424;48.424;11.258;2022-10-16T13:33:07;95939.53;;;26.60;52.09
25526;BME280;13424;48.424;11.258;2022-10-16T13:35:35;95943.00;;;26.90;52.86
25526;BME280;13424;48.424;11.258;2022-10-16T13:38:15;95943.19;;;26.85;51.83
25526;BME280;13424;48.424;11.258;2022-10-16T13:41:17;95945.47;;;26.83;50.38
25526;BME280;13424;48.424;11.258;2022-10-16T13:43:52;95938.88;;;27.05;50.01
25526;BME280;13424;48.424;11.258;2022-10-16T13:46:21;95942.31;;;26.93;50.34
25526;BME280;13424;48.424;11.258;2022-10-16T13:49:05;95936.72;;;26.90;49.05
25526;BME280;13424;48.424;11.258;2022-10-16T13:51:36;95942.81;;;26.54;50.16
25526;BME280;13424;48.424;11.258;2022-10-16T13:54:02;95941.59;;;26.84;49.27
25526;BME280;13424;48.424;11.258;2022-10-16T13:56:32;95934.91;;;27.15;49.57
25526;BME280;13424;48.424;11.258;2022-10-16T13:59:04;95936.66;;;26.98;48.72
25526;BME280;13424;48.424;11.258;2022-10-16T14:01:39;95935.78;;;27.07;48.63
25526;BME280;13424;48.424;11.258;2022-10-16T14:04:11;95945.94;;;26.85;51.03
25526;BME280;13424;48.424;11.258;2022-10-16T14:06:42;95944.72;;;27.16;49.25
25526;BME280;13424;48.424;11.258;2022-10-16T14:11:50;95934.59;;;26.95;48.66
25526;BME280;13424;48.424;11.258;2022-10-16T14:14:20;95948.84;;;27.22;48.17
25526;BME280;13424;48.424;11.258;2022-10-16T14:21:13;95947.94;;;26.97;48.18
25526;BME280;13424;48.424;11.258;2022-10-16T14:23:41;95954.75;;;26.91;48.08
25526;BME280;13424;48.424;11.258;2022-10-16T14:28:37;95957.69;;;26.86;51.19
25526;BME280;13424;48.424;11.258;2022-10-16T14:31:32;95952.34;;;26.68;50.42
25526;BME280;13424;48.424;11.258;2022-10-16T14:33:59;95953.44;;;26.55;49.24
25526;BME280;13424;48.424;11.258;2022-10-16T14:36:27;95944.97;;;26.19;49.96
25526;BME280;13424;48.424;11.258;2022-10-16T14:39:04;95951.63;;;26.59;49.48
25526;BME280;13424;48.424;11.258;2022-10-16T14:41:32;95949.50;;;26.65;50.27
25526;BME280;13424;48.424;11.258;2022-10-16T14:44:03;95946.97;;;25.71;51.57
25526;BME280;13424;48.424;11.258;2022-10-16T14:46:37;95950.94;;;26.12;51.64
25526;BME280;13424;48.424;11.258;2022-10-16T14:49:23;95946.03;;;26.26;52.08
25526;BME280;13424;48.424;11.258;2022-10-16T14:51:49;95948.50;;;26.19;51.94
25526;BME280;13424;48.424;11.258;2022-10-16T14:54:18;95948.94;;;26.21;50.45
25526;BME280;13424;48.424;11.258;2022-10-16T14:56:57;95954.06;;;26.31;52.59
25526;BME280;13424;48.424;11.258;2022-10-16T14:59:41;95953.78;;;26.24;50.44
25526;BME280;13424;48.424;11.258;2022-10-16T15:02:34;95948.66;;;26.14;51.58
25526;BME280;13424;48.424;11.258;2022-10-16T15:05:20;95956.56;;;26.15;52.58
25526;BME280;13424;48.424;11.258;2022-10-16T15:07:54;95952.81;;;26.20;51.67
25526;BME280;13424;48.424;11.258;2022-10-16T15:10:25;95960.47;;;26.06;51.06
25526;BME280;13424;48.424;11.258;2022-10-16T15:12:53;95956.63;;;26.07;51.92
25526;BME280;13424;48.424;11.258;2022-10-16T15:15:36;95958.69;;;26.10;51.92
25526;BME280;13424;48.424;11.258;2022-10-16T15:18:03;95962.25;;;26.02;52.31
25526;BME280;13424;48.424;11.258;2022-10-16T15:20:36;95962.91;;;25.99;53.08
25526;BME280;13424;48.424;11.258;2022-10-16T15:23:05;95964.75;;;25.30;54.97